createdAt,value
2022-10-18T00:02:26.705Z,13.17
2022-10-18T00:04:56.996Z,13.17
2022-10-18T00:07:29.937Z,13.15
2022-10-18T00:09:58.720Z,13.12
2022-10-18T00:12:28.712Z,13.15
2022-10-18T00:14:58.550Z,13.14
2022-10-18T00:17:27.100Z,13.11
2022-10-18T00:20:11.225Z,13.12
2022-10-18T00:22:42.975Z,13.12
2022-10-18T00:25:19.486Z,13.11
2022-10-18T00:27:50.971Z,13.11
2022-10-18T00:30:27.197Z,13.09
2022-10-18T00:32:55.781Z,13.10
2022-10-18T00:38:07.830Z,13.09
2022-10-18T00:40:42.036Z,13.09
2022-10-18T00:43:15.212Z,13.06
2022-10-18T00:45:42.122Z,13.08
2022-10-18T00:48:12.373Z,13.09
2022-10-18T00:50:40.448Z,13.06
2022-10-18T00:53:15.033Z,13.08
2022-10-18T00:55:46.301Z,13.08
2022-10-18T00:58:19.530Z,13.08
2022-10-18T01:01:00.366Z,13.08
2022-10-18T01:03:29.140Z,13.07
2022-10-18T01:05:57.678Z,13.07
2022-10-18T01:09:02.455Z,13.05
2022-10-18T01:12:01.579Z,13.06
2022-10-18T01:14:43.052Z,13.05
2022-10-18T01:17:31.420Z,13.05
2022-10-18T01:20:00.283Z,13.05
2022-10-18T01:22:53.397Z,13.05
2022-10-18T01:25:53.812Z,13.05
2022-10-18T01:29:07.203Z,13.04
2022-10-18T01:32:20.485Z,13.04
2022-10-18T01:34:53.842Z,13.02
2022-10-18T01:37:34.171Z,12.99
2022-10-18T01:40:22.901Z,13.01
2022-10-18T01:42:51.748Z,13.00
2022-10-18T01:45:24.652Z,12.99
2022-10-18T01:47:55.219Z,12.99
2022-10-18T01:50:47.102Z,12.99
2022-10-18T01:53:46.938Z,13.00
2022-10-18T02:00:05.588Z,12.99
2022-10-18T02:02:41.717Z,12.99
2022-10-18T02:06:24.866Z,12.98
2022-10-18T02:09:54.099Z,12.97
2022-10-18T02:12:49.290Z,12.97
2022-10-18T02:15:31.659Z,12.97
2022-10-18T02:18:01.172Z,12.96
2022-10-18T02:20:32.653Z,12.96
2022-10-18T02:23:10.957Z,12.96
2022-10-18T02:25:42.546Z,12.96
2022-10-18T02:28:14.460Z,12.96
2022-10-18T02:30:59.004Z,12.96
2022-10-18T02:34:03.264Z,12.96
2022-10-18T02:36:40.740Z,12.95
2022-10-18T02:39:18.419Z,12.96
2022-10-18T02:41:49.189Z,12.96
2022-10-18T02:44:20.937Z,12.96
2022-10-18T02:46:50.424Z,12.96
2022-10-18T02:49:21.831Z,12.96
2022-10-18T02:51:54.309Z,12.96
2022-10-18T02:54:23.392Z,12.95
2022-10-18T02:56:53.462Z,12.97
2022-10-18T02:59:22.938Z,12.96
2022-10-18T03:01:52.953Z,12.95
2022-10-18T03:04:24.463Z,12.94
2022-10-18T03:06:54.747Z,12.94
2022-10-18T03:09:25.042Z,12.94
2022-10-18T03:11:54.578Z,12.95
2022-10-18T03:14:24.475Z,12.94
2022-10-18T03:16:53.352Z,12.94
2022-10-18T03:22:04.847Z,12.93
2022-10-18T03:24:34.228Z,12.93
2022-10-18T03:27:04.867Z,12.93
2022-10-18T03:29:32.925Z,12.94
2022-10-18T03:32:03.745Z,12.94
2022-10-18T03:34:33.417Z,12.95
2022-10-18T03:37:05.408Z,12.95
2022-10-18T03:39:53.884Z,12.95
2022-10-18T03:42:23.977Z,12.96
2022-10-18T03:44:53.219Z,12.95
2022-10-18T03:47:26.532Z,12.95
2022-10-18T03:49:57.318Z,12.94
2022-10-18T03:52:29.787Z,12.94
2022-10-18T03:54:56.969Z,12.94
2022-10-18T03:57:28.773Z,12.94
2022-10-18T04:00:09.830Z,12.94
2022-10-18T04:02:40.443Z,12.93
2022-10-18T04:05:13.941Z,12.93
2022-10-18T04:07:42.806Z,12.95
2022-10-18T04:10:16.680Z,12.93
2022-10-18T04:12:45.709Z,12.94
2022-10-18T04:15:12.700Z,12.94
2022-10-18T04:17:41.638Z,12.93
2022-10-18T04:20:14.367Z,12.95
2022-10-18T04:22:43.722Z,12.95
2022-10-18T04:25:17.957Z,12.95
2022-10-18T04:27:48.504Z,12.93
2022-10-18T04:30:15.349Z,12.94
2022-10-18T04:32:42.319Z,12.95
2022-10-18T04:35:10.502Z,12.93
2022-10-18T04:37:37.569Z,12.95
2022-10-18T04:40:04.931Z,12.93
2022-10-18T04:42:31.841Z,12.94
2022-10-18T04:44:58.758Z,12.92
2022-10-18T04:47:25.676Z,12.89
2022-10-18T04:49:52.539Z,12.96
2022-10-18T04:52:19.439Z,12.95
2022-10-18T04:54:46.613Z,12.95
2022-10-18T04:57:13.478Z,12.93
2022-10-18T04:59:40.303Z,12.93
2022-10-18T05:02:07.169Z,12.95
2022-10-18T05:04:34.330Z,12.95
2022-10-18T05:07:01.319Z,12.92
2022-10-18T05:09:28.242Z,12.94
2022-10-18T05:11:55.176Z,12.90
2022-10-18T05:14:22.082Z,12.92
2022-10-18T05:16:49.103Z,12.91
2022-10-18T05:19:16.003Z,12.93
2022-10-18T05:21:42.928Z,12.94
2022-10-18T05:24:11.899Z,12.90
2022-10-18T05:26:38.918Z,12.89
2022-10-18T05:29:05.884Z,12.94
2022-10-18T05:31:32.826Z,12.95
2022-10-18T05:33:59.758Z,12.89
2022-10-18T05:36:26.714Z,12.93
2022-10-18T05:38:54.094Z,12.90
2022-10-18T05:41:21.539Z,12.94
2022-10-18T05:43:48.427Z,12.91
2022-10-18T05:46:15.916Z,12.91
2022-10-18T05:48:44.685Z,12.89
2022-10-18T05:51:12.078Z,12.89
2022-10-18T05:53:39.006Z,12.90
2022-10-18T05:56:07.269Z,12.91
2022-10-18T05:58:34.842Z,12.90
2022-10-18T06:01:03.302Z,12.83
2022-10-18T06:03:33.180Z,12.87
2022-10-18T06:06:10.147Z,12.82
2022-10-18T06:08:38.283Z,12.85
2022-10-18T06:11:10.398Z,12.84
2022-10-18T06:13:45.345Z,12.83
2022-10-18T06:16:14.025Z,12.83
2022-10-18T06:18:41.279Z,12.81
2022-10-18T06:21:08.695Z,12.82
2022-10-18T06:23:35.978Z,12.83
2022-10-18T06:26:07.760Z,12.81
2022-10-18T06:28:36.305Z,12.83
2022-10-18T06:31:05.129Z,12.81
2022-10-18T06:33:32.822Z,12.82
2022-10-18T06:36:10.357Z,12.83
2022-10-18T06:38:37.578Z,12.83
2022-10-18T06:41:05.250Z,12.80
2022-10-18T06:43:32.243Z,12.77
2022-10-18T06:46:02.304Z,12.81
2022-10-18T06:48:29.399Z,12.80
2022-10-18T06:50:58.745Z,12.77
2022-10-18T06:53:27.753Z,12.79
2022-10-18T06:56:27.020Z,12.81
2022-10-18T06:58:54.172Z,12.75
2022-10-18T07:01:21.591Z,12.77
2022-10-18T07:03:52.221Z,12.77
2022-10-18T07:06:20.232Z,12.78
2022-10-18T07:08:48.939Z,12.75
2022-10-18T07:11:18.131Z,12.77
2022-10-18T07:13:45.623Z,12.76
2022-10-18T07:16:18.185Z,12.75
2022-10-18T07:18:51.084Z,12.76
2022-10-18T07:21:20.660Z,12.76
2022-10-18T07:23:48.740Z,12.78
2022-10-18T07:26:20.354Z,12.80
2022-10-18T07:28:55.320Z,12.82
2022-10-18T07:31:22.999Z,12.83
2022-10-18T07:33:50.207Z,12.82
2022-10-18T07:36:17.071Z,12.82
2022-10-18T07:38:44.877Z,12.80
2022-10-18T07:41:13.503Z,12.84
2022-10-18T07:43:46.774Z,12.84
2022-10-18T07:46:14.932Z,12.86
2022-10-18T07:48:41.848Z,12.85
2022-10-18T07:51:09.319Z,12.91
2022-10-18T07:53:36.840Z,12.87
2022-10-18T07:56:09.348Z,12.89
2022-10-18T07:58:37.140Z,12.91
2022-10-18T08:01:05.506Z,12.94
2022-10-18T08:03:32.562Z,12.94
2022-10-18T08:05:59.503Z,12.93
2022-10-18T08:08:27.176Z,12.98
2022-10-18T08:10:54.690Z,13.00
2022-10-18T08:13:21.671Z,12.97
2022-10-18T08:15:50.975Z,13.01
2022-10-18T08:18:17.993Z,13.03
2022-10-18T08:20:45.604Z,13.01
2022-10-18T08:23:12.787Z,13.02
2022-10-18T08:25:39.744Z,13.06
2022-10-18T08:28:07.234Z,13.05
2022-10-18T08:30:35.837Z,13.07
2022-10-18T08:33:03.794Z,13.08
2022-10-18T08:35:31.868Z,13.11
2022-10-18T08:37:59.491Z,13.13
2022-10-18T08:40:27.689Z,13.11
2022-10-18T08:43:21.448Z,13.16
2022-10-18T08:45:50.899Z,13.17
2022-10-18T08:48:25.558Z,13.17
2022-10-18T08:50:55.823Z,13.19
2022-10-18T08:53:51.293Z,13.20
2022-10-18T08:56:24.135Z,13.20
2022-10-18T08:58:51.116Z,13.23
2022-10-18T09:01:44.843Z,13.21
2022-10-18T09:05:02.583Z,13.22
2022-10-18T09:07:38.599Z,13.23
2022-10-18T09:10:20.247Z,13.22
2022-10-18T09:13:22.267Z,13.26
2022-10-18T09:16:05.778Z,13.24
2022-10-18T09:18:47.835Z,13.29
2022-10-18T09:21:23.938Z,13.26
2022-10-18T09:23:56.441Z,13.30
2022-10-18T09:26:43.524Z,13.27
2022-10-18T09:29:47.846Z,13.35
2022-10-18T09:32:14.635Z,13.37
2022-10-18T09:34:56.426Z,13.39
2022-10-18T09:37:24.819Z,13.39
2022-10-18T09:40:00.111Z,13.41
2022-10-18T09:42:34.944Z,13.40
2022-10-18T09:45:24.072Z,13.42
2022-10-18T09:48:03.122Z,13.44
2022-10-18T09:50:42.661Z,13.44
2022-10-18T09:53:24.417Z,13.45
2022-10-18T09:56:03.461Z,13.46
2022-10-18T09:58:39.700Z,13.48
2022-10-18T10:01:08.190Z,13.44
2022-10-18T10:03:35.918Z,13.49
2022-10-18T10:06:11.889Z,13.47
2022-10-18T10:08:44.554Z,13.48
2022-10-18T10:11:37.985Z,13.52
2022-10-18T10:14:25.559Z,13.51
2022-10-18T10:17:04.021Z,13.53
2022-10-18T10:19:32.420Z,13.56
2022-10-18T10:22:06.477Z,13.56
2022-10-18T10:24:35.726Z,13.57
2022-10-18T10:27:06.331Z,13.61
2022-10-18T10:29:45.461Z,13.58
2022-10-18T10:32:17.742Z,13.62
2022-10-18T10:34:45.194Z,13.60
2022-10-18T10:37:27.514Z,13.63
2022-10-18T10:40:18.822Z,13.64
2022-10-18T10:43:04.281Z,13.65
2022-10-18T10:45:59.884Z,13.67
2022-10-18T10:48:33.005Z,13.68
2022-10-18T10:51:07.691Z,13.65
2022-10-18T10:53:50.936Z,13.72
2022-10-18T10:56:22.721Z,13.69
2022-10-18T10:58:51.292Z,13.69
2022-10-18T11:01:31.306Z,13.74
2022-10-18T11:04:01.895Z,13.77
2022-10-18T11:06:34.618Z,13.79
2022-10-18T11:09:05.001Z,13.81
2022-10-18T11:11:36.329Z,13.82
2022-10-18T11:14:25.636Z,13.84
2022-10-18T11:17:17.154Z,13.86
2022-10-18T11:19:59.157Z,13.85
2022-10-18T11:22:31.577Z,13.89
2022-10-18T11:24:58.752Z,13.89
2022-10-18T11:27:32.187Z,13.89
2022-10-18T11:30:14.912Z,13.88
2022-10-18T11:32:55.208Z,13.89
2022-10-18T11:35:44.450Z,13.93
2022-10-18T11:38:31.024Z,13.91
2022-10-18T11:41:31.373Z,13.92
2022-10-18T11:44:03.341Z,13.91
2022-10-18T11:46:59.821Z,13.94
2022-10-18T11:49:48.533Z,13.96
2022-10-18T11:52:41.492Z,13.96
2022-10-18T11:55:33.051Z,13.95
2022-10-18T11:58:15.352Z,13.97
2022-10-18T12:00:57.106Z,13.97
2022-10-18T12:03:47.211Z,13.96
2022-10-18T12:06:19.072Z,13.98
2022-10-18T12:08:54.841Z,13.98
2022-10-18T12:11:33.006Z,13.99
2022-10-18T12:14:07.978Z,13.98
2022-10-18T12:16:50.935Z,13.99
2022-10-18T12:19:32.987Z,14.02
2022-10-18T12:22:14.665Z,14.02
2022-10-18T12:24:42.242Z,14.06
2022-10-18T12:27:13.318Z,14.06
2022-10-18T12:29:51.521Z,14.08
2022-10-18T12:32:25.199Z,14.09
2022-10-18T12:34:57.624Z,14.12
2022-10-18T12:37:55.559Z,14.15
2022-10-18T12:40:48.938Z,14.14
2022-10-18T12:43:36.388Z,14.14
2022-10-18T12:46:13.318Z,14.16
2022-10-18T12:48:45.548Z,14.17
2022-10-18T12:51:21.542Z,14.20
2022-10-18T12:53:54.433Z,14.21
2022-10-18T12:56:30.786Z,14.23
2022-10-18T12:59:16.107Z,14.23
2022-10-18T13:02:06.081Z,14.24
2022-10-18T13:04:34.237Z,14.23
2022-10-18T13:07:02.991Z,14.22
2022-10-18T13:09:38.521Z,14.26
2022-10-18T13:12:11.109Z,14.29
2022-10-18T13:15:12.417Z,14.31
2022-10-18T13:17:50.029Z,14.31
2022-10-18T13:20:31.937Z,14.33
2022-10-18T13:23:23.013Z,14.33
2022-10-18T13:26:04.412Z,14.33
2022-10-18T13:28:45.463Z,14.32
2022-10-18T13:31:31.072Z,14.35
2022-10-18T13:34:24.010Z,14.32
2022-10-18T13:37:04.014Z,14.35
2022-10-18T13:39:32.014Z,14.34
2022-10-18T13:42:00.634Z,14.31
2022-10-18T13:44:30.387Z,14.31
2022-10-18T13:46:57.311Z,14.31
2022-10-18T13:50:03.153Z,14.35
2022-10-18T13:52:48.618Z,14.30
2022-10-18T13:55:42.837Z,14.37
2022-10-18T13:59:13.154Z,14.38
2022-10-18T14:01:53.333Z,14.33
2022-10-18T14:04:39.011Z,14.33
2022-10-18T14:07:08.958Z,14.34
2022-10-18T14:09:52.468Z,14.34
2022-10-18T14:12:31.583Z,14.32
2022-10-18T14:15:37.482Z,14.35
2022-10-18T14:18:18.901Z,14.31
2022-10-18T14:21:12.931Z,14.33
2022-10-18T14:23:47.066Z,14.34
2022-10-18T14:26:17.322Z,14.35
2022-10-18T14:29:00.715Z,14.34
2022-10-18T14:31:28.635Z,14.33
2022-10-18T14:33:58.739Z,14.29
2022-10-18T14:36:29.882Z,14.30
2022-10-18T14:38:59.512Z,14.30
2022-10-18T14:41:32.797Z,14.28
2022-10-18T14:44:29.815Z,14.27
2022-10-18T14:47:01.492Z,14.25
2022-10-18T14:49:28.876Z,14.22
2022-10-18T14:52:00.856Z,14.23
2022-10-18T14:54:37.263Z,14.20
2022-10-18T14:57:06.847Z,14.18
2022-10-18T14:59:47.044Z,14.14
2022-10-18T15:02:21.359Z,14.15
2022-10-18T15:04:59.443Z,14.14
2022-10-18T15:07:29.318Z,14.11
2022-10-18T15:10:02.672Z,14.10
2022-10-18T15:12:40.946Z,14.09
2022-10-18T15:15:21.951Z,14.04
2022-10-18T15:17:49.661Z,14.02
2022-10-18T15:20:34.848Z,14.00
2022-10-18T15:23:32.264Z,14.01
2022-10-18T15:26:05.650Z,13.94
2022-10-18T15:28:40.624Z,13.93
2022-10-18T15:31:24.311Z,13.89
2022-10-18T15:33:52.320Z,13.87
2022-10-18T15:36:29.433Z,13.84
2022-10-18T15:39:20.098Z,13.82
2022-10-18T15:41:52.763Z,13.79
2022-10-18T15:44:24.871Z,13.75
2022-10-18T15:46:55.815Z,13.68
2022-10-18T15:49:47.134Z,13.66
2022-10-18T15:52:19.825Z,13.61
2022-10-18T15:57:18.576Z,13.50
2022-10-18T16:00:07.352Z,13.42
2022-10-18T16:02:34.200Z,13.39
2022-10-18T16:05:01.906Z,13.33
2022-10-18T16:07:28.758Z,13.28
2022-10-18T16:09:55.698Z,13.24
2022-10-18T16:12:22.707Z,13.20
2022-10-18T16:14:49.593Z,13.10
2022-10-18T16:17:17.361Z,13.06
2022-10-18T16:19:44.642Z,13.05
2022-10-18T16:22:14.935Z,12.97
2022-10-18T16:24:41.893Z,12.95
2022-10-18T16:27:10.200Z,12.89
2022-10-18T16:29:37.741Z,12.83
2022-10-18T16:32:04.848Z,12.70
2022-10-18T16:34:32.237Z,12.71
2022-10-18T16:36:59.333Z,12.57
2022-10-18T16:39:26.561Z,12.57
2022-10-18T16:41:53.539Z,12.50
2022-10-18T16:44:20.439Z,12.49
2022-10-18T16:46:51.055Z,12.39
2022-10-18T16:49:26.440Z,12.35
2022-10-18T16:51:54.513Z,12.27
2022-10-18T16:54:22.041Z,12.27
2022-10-18T16:56:50.283Z,12.16
2022-10-18T16:59:27.957Z,12.12
2022-10-18T17:01:55.076Z,12.07
2022-10-18T17:04:22.054Z,12.01
2022-10-18T17:06:49.322Z,11.90
2022-10-18T17:09:16.448Z,11.90
2022-10-18T17:11:43.635Z,11.83
2022-10-18T17:14:10.441Z,11.79
2022-10-18T17:16:38.815Z,11.73
2022-10-18T17:19:08.039Z,11.65
2022-10-18T17:21:35.270Z,11.65
2022-10-18T17:24:04.354Z,11.60
2022-10-18T17:26:31.520Z,11.56
2022-10-18T17:29:01.374Z,11.49
2022-10-18T17:31:29.901Z,11.45
2022-10-18T17:33:58.584Z,11.38
2022-10-18T17:36:25.970Z,11.33
2022-10-18T17:38:54.445Z,11.26
2022-10-18T17:41:21.599Z,11.20
2022-10-18T17:43:48.866Z,11.19
2022-10-18T17:46:17.820Z,11.15
2022-10-18T17:48:45.335Z,11.07
2022-10-18T17:51:15.218Z,11.03
2022-10-18T17:53:42.379Z,10.93
2022-10-18T17:56:10.963Z,10.91
2022-10-18T17:58:37.970Z,10.85
2022-10-18T18:01:16.766Z,10.82
2022-10-18T18:03:44.321Z,10.76
2022-10-18T18:06:22.979Z,10.75
2022-10-18T18:08:50.474Z,10.71
2022-10-18T18:11:18.064Z,10.65
2022-10-18T18:13:45.136Z,10.57
2022-10-18T18:16:14.632Z,10.54
2022-10-18T18:18:42.925Z,10.52
2022-10-18T18:21:09.769Z,10.43
2022-10-18T18:23:36.742Z,10.37
2022-10-18T18:26:03.963Z,10.37
2022-10-18T18:28:30.891Z,10.32
2022-10-18T18:30:57.934Z,10.26
2022-10-18T18:33:24.960Z,10.25
2022-10-18T18:35:59.625Z,10.20
2022-10-18T18:38:26.804Z,10.14
2022-10-18T18:41:24.082Z,10.12
2022-10-18T18:43:54.081Z,10.07
2022-10-18T18:46:22.358Z,9.98
2022-10-18T18:48:49.536Z,10.00
2022-10-18T18:51:19.102Z,9.95
2022-10-18T18:53:47.498Z,9.91
2022-10-18T18:58:47.082Z,9.85
2022-10-18T19:01:18.511Z,9.81
2022-10-18T19:03:47.846Z,9.75
2022-10-18T19:06:20.659Z,9.72
2022-10-18T19:08:48.442Z,9.66
2022-10-18T19:11:18.734Z,9.63
2022-10-18T19:13:45.917Z,9.62
2022-10-18T19:16:23.687Z,9.54
2022-10-18T19:18:56.220Z,9.44
2022-10-18T19:21:24.758Z,9.44
2022-10-18T19:23:52.142Z,9.38
2022-10-18T19:26:32.058Z,9.37
2022-10-18T19:29:08.507Z,9.22
2022-10-18T19:31:35.829Z,9.29
2022-10-18T19:34:05.993Z,9.24
2022-10-18T19:36:33.366Z,9.19
2022-10-18T19:39:00.603Z,9.15
2022-10-18T19:41:28.869Z,9.11
2022-10-18T19:43:57.102Z,9.09
2022-10-18T19:46:24.740Z,9.05
2022-10-18T19:48:53.989Z,9.03
2022-10-18T19:51:22.939Z,8.98
2022-10-18T19:53:51.027Z,8.91
2022-10-18T19:56:23.346Z,8.89
2022-10-18T19:58:50.994Z,8.90
2022-10-18T20:01:18.967Z,8.86
2022-10-18T20:03:46.586Z,8.83
2022-10-18T20:06:13.765Z,8.79
2022-10-18T20:11:15.840Z,8.70
2022-10-18T20:13:43.424Z,8.69
2022-10-18T20:16:11.954Z,8.59
2022-10-18T20:18:38.822Z,8.62
2022-10-18T20:21:07.687Z,8.58
2022-10-18T20:23:39.379Z,8.53
2022-10-18T20:26:18.238Z,8.50
2022-10-18T20:28:48.970Z,8.48
2022-10-18T20:31:18.877Z,8.42
2022-10-18T20:33:47.339Z,8.40
2022-10-18T20:36:16.279Z,8.35
2022-10-18T20:38:45.921Z,8.36
2022-10-18T20:41:16.014Z,8.26
2022-10-18T20:43:43.523Z,8.24
2022-10-18T20:46:11.021Z,8.25
2022-10-18T20:48:38.929Z,8.23
2022-10-18T20:51:12.056Z,8.23
2022-10-18T20:53:39.899Z,8.17
2022-10-18T20:56:12.311Z,8.15
2022-10-18T20:58:41.156Z,8.11
2022-10-18T21:01:31.854Z,8.10
2022-10-18T21:04:06.814Z,8.05
2022-10-18T21:06:36.012Z,8.02
2022-10-18T21:09:11.832Z,8.02
2022-10-18T21:11:45.597Z,8.01
2022-10-18T21:14:16.221Z,7.92
2022-10-18T21:16:43.763Z,7.98
2022-10-18T21:19:19.470Z,7.99
2022-10-18T21:21:50.288Z,7.97
2022-10-18T21:24:21.761Z,7.94
2022-10-18T21:26:48.968Z,7.91
2022-10-18T21:29:21.607Z,7.87
2022-10-18T21:31:49.712Z,7.84
2022-10-18T21:34:17.566Z,7.86
2022-10-18T21:36:47.087Z,7.86
2022-10-18T21:39:19.151Z,7.84
2022-10-18T21:41:46.792Z,7.80
2022-10-18T21:44:14.312Z,7.78
2022-10-18T21:46:43.177Z,7.75
2022-10-18T21:49:11.051Z,7.66
2022-10-18T21:51:39.839Z,7.71
2022-10-18T21:54:28.113Z,7.70
2022-10-18T21:57:08.713Z,7.53
2022-10-18T21:59:58.504Z,7.68
2022-10-18T22:02:27.653Z,7.64
2022-10-18T22:04:56.819Z,7.63
2022-10-18T22:07:26.574Z,7.61
2022-10-18T22:09:53.412Z,7.58
2022-10-18T22:12:23.137Z,7.55
2022-10-18T22:14:50.010Z,7.52
2022-10-18T22:17:26.430Z,7.50
2022-10-18T22:19:54.603Z,7.48
2022-10-18T22:22:26.046Z,7.47
2022-10-18T22:24:59.245Z,7.46
2022-10-18T22:27:36.751Z,7.44
2022-10-18T22:30:09.082Z,7.43
2022-10-18T22:32:37.163Z,7.42
2022-10-18T22:35:04.272Z,7.41
2022-10-18T22:37:31.412Z,7.40
2022-10-18T22:39:58.417Z,7.43
2022-10-18T22:42:25.257Z,7.43
2022-10-18T22:44:52.146Z,7.35
2022-10-18T22:47:18.971Z,7.42
2022-10-18T22:49:45.823Z,7.41
2022-10-18T22:52:12.961Z,7.39
2022-10-18T22:54:39.796Z,7.38
2022-10-18T22:57:06.501Z,7.37
2022-10-18T22:59:33.863Z,7.34
2022-10-18T23:02:00.721Z,7.34
2022-10-18T23:04:27.461Z,7.33
2022-10-18T23:06:54.293Z,7.31
2022-10-18T23:09:21.116Z,7.30
2022-10-18T23:11:48.090Z,7.26
2022-10-18T23:14:14.886Z,7.26
2022-10-18T23:16:41.773Z,7.24
2022-10-18T23:19:15.428Z,7.20
2022-10-18T23:21:42.821Z,7.19
2022-10-18T23:24:09.639Z,7.17
2022-10-18T23:26:36.518Z,7.15
2022-10-18T23:29:03.745Z,7.13
2022-10-18T23:31:32.966Z,7.12
2022-10-18T23:34:02.700Z,7.12
2022-10-18T23:36:30.763Z,7.11
2022-10-18T23:38:58.171Z,7.10
2022-10-18T23:41:26.004Z,7.07
2022-10-18T23:43:52.978Z,7.05
2022-10-18T23:46:20.527Z,7.03
2022-10-18T23:48:47.870Z,7.02
2022-10-18T23:51:15.217Z,7.01
2022-10-18T23:53:42.342Z,7.02
2022-10-18T23:56:12.421Z,6.99
2022-10-18T23:58:50.326Z,6.98
